createdAt,value
2019-05-06T00:01:55.914Z,78.50
2019-05-06T00:04:28.247Z,78.20
2019-05-06T00:07:04.223Z,78.30
2019-05-06T00:09:36.311Z,78.20
2019-05-06T00:12:09.103Z,77.70
2019-05-06T00:14:43.163Z,77.80
2019-05-06T00:17:15.695Z,77.70
2019-05-06T00:19:50.123Z,77.40
2019-05-06T00:22:23.771Z,77.20
2019-05-06T00:25:16.916Z,77.10
2019-05-06T00:28:07.195Z,76.80
2019-05-06T00:30:43.865Z,76.40
2019-05-06T00:33:15.745Z,76.50
2019-05-06T00:35:47.347Z,76.00
2019-05-06T00:38:19.926Z,75.70
2019-05-06T00:40:55.197Z,75.60
2019-05-06T00:43:26.557Z,75.60
2019-05-06T00:45:58.414Z,75.40
2019-05-06T00:48:29.689Z,75.00
2019-05-06T00:51:04.535Z,74.80
2019-05-06T00:53:39.471Z,74.70
2019-05-06T00:56:10.832Z,74.60
2019-05-06T00:58:43.615Z,74.40
2019-05-06T01:01:28.651Z,74.40
2019-05-06T01:03:53.580Z,74.40
2019-05-06T01:06:24.772Z,74.10
2019-05-06T01:08:59.026Z,74.00
2019-05-06T01:11:31.571Z,73.80
2019-05-06T01:14:08.742Z,72.80
2019-05-06T01:16:41.444Z,72.40
2019-05-06T01:19:14.152Z,72.50
2019-05-06T01:21:46.243Z,72.10
2019-05-06T01:24:18.711Z,71.80
2019-05-06T01:26:55.216Z,71.60
2019-05-06T01:29:26.845Z,71.80
2019-05-06T01:31:59.454Z,70.40
2019-05-06T01:34:33.715Z,70.40
2019-05-06T01:37:05.881Z,70.00
2019-05-06T01:39:57.493Z,69.80
2019-05-06T01:42:31.092Z,69.20
2019-05-06T01:45:04.521Z,69.20
2019-05-06T01:47:36.448Z,68.20
2019-05-06T01:50:09.270Z,68.40
2019-05-06T01:52:41.703Z,68.40
2019-05-06T01:55:14.325Z,68.50
2019-05-06T01:57:48.492Z,68.50
2019-05-06T02:00:20.184Z,68.10
2019-05-06T02:02:54.740Z,68.00
2019-05-06T02:05:26.562Z,67.70
2019-05-06T02:07:59.085Z,67.30
2019-05-06T02:10:34.946Z,66.40
2019-05-06T02:13:07.108Z,66.90
2019-05-06T02:15:39.477Z,66.30
2019-05-06T02:18:14.130Z,66.00
2019-05-06T02:20:47.727Z,64.90
2019-05-06T02:23:38.093Z,64.20
2019-05-06T02:26:10.713Z,64.70
2019-05-06T02:28:44.435Z,64.60
2019-05-06T02:31:36.746Z,64.70
2019-05-06T02:34:15.309Z,63.70
2019-05-06T02:36:55.544Z,63.20
2019-05-06T02:39:28.373Z,63.10
2019-05-06T02:42:03.961Z,62.50
2019-05-06T02:44:37.731Z,61.60
2019-05-06T02:47:13.738Z,61.90
2019-05-06T02:50:04.510Z,61.90
2019-05-06T02:52:43.755Z,62.00
2019-05-06T02:55:14.850Z,62.20
2019-05-06T02:57:47.392Z,61.00
2019-05-06T03:00:23.892Z,60.80
2019-05-06T03:02:56.773Z,60.80
2019-05-06T03:05:33.292Z,59.70
2019-05-06T03:08:05.130Z,59.30
2019-05-06T03:10:43.813Z,59.50
2019-05-06T03:13:17.313Z,59.80
2019-05-06T03:15:54.055Z,59.10
2019-05-06T03:18:27.428Z,59.00
2019-05-06T03:20:59.496Z,59.10
2019-05-06T03:23:54.505Z,57.90
2019-05-06T03:26:29.092Z,57.10
2019-05-06T03:29:02.931Z,56.30
2019-05-06T03:31:36.652Z,55.20
2019-05-06T03:34:35.848Z,55.90
2019-05-06T03:36:48.329Z,56.00
2019-05-06T03:39:17.625Z,56.00
2019-05-06T03:41:53.721Z,54.10
2019-05-06T03:44:27.565Z,53.80
2019-05-06T03:47:19.673Z,54.10
2019-05-06T03:49:54.602Z,53.80
2019-05-06T03:52:26.643Z,53.60
2019-05-06T03:55:03.637Z,53.30
2019-05-06T03:57:36.490Z,53.50
2019-05-06T04:00:13.008Z,52.10
2019-05-06T04:02:43.513Z,51.50
2019-05-06T04:05:18.469Z,51.70
2019-05-06T04:07:53.139Z,51.10
2019-05-06T04:10:25.869Z,51.50
2019-05-06T04:12:58.970Z,51.10
2019-05-06T04:15:34.176Z,52.10
2019-05-06T04:18:07.895Z,51.80
2019-05-06T04:20:46.507Z,52.50
2019-05-06T04:23:23.393Z,50.50
2019-05-06T04:26:17.518Z,49.80
2019-05-06T04:28:49.151Z,49.70
2019-05-06T04:31:22.848Z,49.50
2019-05-06T04:34:09.969Z,49.00
2019-05-06T04:36:35.960Z,48.90
2019-05-06T04:39:09.147Z,48.60
2019-05-06T04:41:43.384Z,47.20
2019-05-06T04:44:17.156Z,47.50
2019-05-06T04:46:50.031Z,47.80
2019-05-06T04:49:23.738Z,47.40
2019-05-06T04:51:56.176Z,46.90
2019-05-06T04:54:28.614Z,46.10
2019-05-06T04:57:05.069Z,46.50
2019-05-06T04:59:44.143Z,45.90
2019-05-06T05:02:18.459Z,46.10
2019-05-06T05:04:53.080Z,46.50
2019-05-06T05:07:25.996Z,45.10
2019-05-06T05:10:03.213Z,45.10
2019-05-06T05:12:39.039Z,44.90
2019-05-06T05:15:22.723Z,44.40
2019-05-06T05:18:14.511Z,44.20
2019-05-06T05:20:49.243Z,45.40
2019-05-06T05:23:19.688Z,44.70
2019-05-06T05:25:52.300Z,43.90
2019-05-06T05:28:24.668Z,44.40
2019-05-06T05:30:57.391Z,41.90
2019-05-06T05:33:29.581Z,42.50
2019-05-06T05:36:02.401Z,41.40
2019-05-06T05:38:36.989Z,41.40
2019-05-06T05:41:12.119Z,42.50
2019-05-06T05:43:43.160Z,42.60
2019-05-06T05:46:14.694Z,41.70
2019-05-06T05:48:52.161Z,43.20
2019-05-06T05:51:25.247Z,41.10
2019-05-06T05:53:58.412Z,41.50
2019-05-06T05:56:32.752Z,41.50
2019-05-06T05:59:04.823Z,40.50
2019-05-06T06:01:38.674Z,41.40
2019-05-06T06:04:13.014Z,41.50
2019-05-06T06:06:45.749Z,42.30
2019-05-06T06:09:22.268Z,42.60
2019-05-06T06:11:55.505Z,43.00
2019-05-06T06:14:48.603Z,43.90
2019-05-06T06:17:39.242Z,43.60
2019-05-06T06:20:30.162Z,44.20
2019-05-06T06:23:04.646Z,44.60
2019-05-06T06:25:37.271Z,44.50
2019-05-06T06:28:08.829Z,44.00
2019-05-06T06:30:59.884Z,43.90
2019-05-06T06:33:33.010Z,44.20
2019-05-06T06:36:07.286Z,43.30
2019-05-06T06:38:49.499Z,43.60
2019-05-06T06:41:22.829Z,42.90
2019-05-06T06:43:58.352Z,42.90
2019-05-06T06:46:32.335Z,41.90
2019-05-06T06:49:04.832Z,41.90
2019-05-06T06:51:37.889Z,42.10
2019-05-06T06:54:09.480Z,41.30
2019-05-06T06:57:04.678Z,42.00
2019-05-06T06:59:28.275Z,42.10
2019-05-06T07:02:02.756Z,43.20
2019-05-06T07:04:56.253Z,43.70
2019-05-06T07:07:41.369Z,42.10
2019-05-06T07:10:03.466Z,42.80
2019-05-06T07:12:38.884Z,43.30
2019-05-06T07:15:12.513Z,44.40
2019-05-06T07:17:45.661Z,44.90
2019-05-06T07:20:22.878Z,44.60
2019-05-06T07:22:56.445Z,44.90
2019-05-06T07:25:33.508Z,45.00
2019-05-06T07:28:04.530Z,45.60
2019-05-06T07:30:36.092Z,45.80
2019-05-06T07:33:10.270Z,45.60
2019-05-06T07:35:43.934Z,45.80
2019-05-06T07:38:16.689Z,45.80
2019-05-06T07:40:52.883Z,46.10
2019-05-06T07:43:42.186Z,46.90
2019-05-06T07:46:32.982Z,48.10
2019-05-06T07:49:06.852Z,48.80
2019-05-06T07:51:42.000Z,49.30
2019-05-06T07:54:14.297Z,49.60
2019-05-06T07:56:48.831Z,50.20
2019-05-06T07:59:22.543Z,50.60
2019-05-06T08:01:56.957Z,50.60
2019-05-06T08:04:29.519Z,50.70
2019-05-06T08:07:03.327Z,50.50
2019-05-06T08:09:36.762Z,50.10
2019-05-06T08:12:12.358Z,50.00
2019-05-06T08:14:45.081Z,49.50
2019-05-06T08:17:19.337Z,49.20
2019-05-06T08:19:52.974Z,49.30
2019-05-06T08:22:28.524Z,49.10
2019-05-06T08:25:03.217Z,49.30
2019-05-06T08:27:37.518Z,49.00
2019-05-06T08:30:14.088Z,48.90
2019-05-06T08:32:44.830Z,48.90
2019-05-06T08:35:19.086Z,49.20
2019-05-06T08:37:52.970Z,49.20
2019-05-06T08:40:26.615Z,49.00
2019-05-06T08:43:02.230Z,48.80
2019-05-06T08:45:34.653Z,48.80
2019-05-06T08:48:09.816Z,48.30
2019-05-06T08:50:45.669Z,48.60
2019-05-06T08:53:26.883Z,48.50
2019-05-06T08:56:01.888Z,48.90
2019-05-06T08:58:53.633Z,49.00
2019-05-06T09:01:46.133Z,49.00
2019-05-06T09:04:17.621Z,49.30
2019-05-06T09:06:50.135Z,49.20
2019-05-06T09:09:22.992Z,49.30
2019-05-06T09:11:55.454Z,49.50
2019-05-06T09:14:28.278Z,49.50
2019-05-06T09:17:02.615Z,49.40
2019-05-06T09:19:39.696Z,49.40
2019-05-06T09:22:17.369Z,49.70
2019-05-06T09:24:53.092Z,50.00
2019-05-06T09:27:26.975Z,50.10
2019-05-06T09:30:02.821Z,50.30
2019-05-06T09:32:36.114Z,50.50
2019-05-06T09:35:10.059Z,50.60
2019-05-06T09:37:43.084Z,50.80
2019-05-06T09:40:14.484Z,50.90
2019-05-06T09:42:46.904Z,51.10
2019-05-06T09:45:19.572Z,51.50
2019-05-06T09:48:12.617Z,51.80
2019-05-06T09:50:46.658Z,52.10
2019-05-06T09:53:22.939Z,53.00
2019-05-06T09:56:16.480Z,53.20
2019-05-06T09:58:49.174Z,53.80
2019-05-06T10:01:22.516Z,53.70
2019-05-06T10:03:55.009Z,53.30
2019-05-06T10:06:29.416Z,53.30
2019-05-06T10:09:05.160Z,53.50
2019-05-06T10:11:38.085Z,54.30
2019-05-06T10:14:12.580Z,54.10
2019-05-06T10:16:45.909Z,55.20
2019-05-06T10:19:19.330Z,56.20
2019-05-06T10:21:53.521Z,56.50
2019-05-06T10:24:26.261Z,56.80
2019-05-06T10:27:00.069Z,56.80
2019-05-06T10:29:35.411Z,57.10
2019-05-06T10:32:08.875Z,56.80
2019-05-06T10:34:43.305Z,57.10
2019-05-06T10:37:35.567Z,56.80
2019-05-06T10:40:33.153Z,57.60
2019-05-06T10:43:32.462Z,56.50
2019-05-06T10:46:04.564Z,55.70
2019-05-06T10:48:36.854Z,56.30
2019-05-06T10:51:13.214Z,57.00
2019-05-06T10:53:43.334Z,58.00
2019-05-06T10:56:49.065Z,57.70
2019-05-06T10:59:08.869Z,57.50
2019-05-06T11:01:46.299Z,57.30
2019-05-06T11:04:17.879Z,57.10
2019-05-06T11:06:52.384Z,56.90
2019-05-06T11:09:25.305Z,56.80
2019-05-06T11:11:59.836Z,56.80
2019-05-06T11:14:34.218Z,56.80
2019-05-06T11:17:07.710Z,57.00
2019-05-06T11:19:39.302Z,56.80
2019-05-06T11:22:12.827Z,56.70
2019-05-06T11:24:45.694Z,56.60
2019-05-06T11:27:28.982Z,56.80
2019-05-06T11:29:53.283Z,56.90
2019-05-06T11:32:27.248Z,56.90
2019-05-06T11:35:03.762Z,57.00
2019-05-06T11:37:46.337Z,57.50
2019-05-06T11:40:16.459Z,58.50
2019-05-06T11:42:45.373Z,58.30
2019-05-06T11:45:20.238Z,58.00
2019-05-06T11:47:55.432Z,58.70
2019-05-06T11:50:25.328Z,58.00
2019-05-06T11:52:59.287Z,57.90
2019-05-06T11:55:38.059Z,58.90
2019-05-06T11:58:08.346Z,59.20
2019-05-06T12:00:44.052Z,58.60
2019-05-06T12:03:14.140Z,58.10
2019-05-06T12:05:45.848Z,58.70
2019-05-06T12:08:17.983Z,59.50
2019-05-06T12:10:51.997Z,59.70
2019-05-06T12:13:24.238Z,59.90
2019-05-06T12:15:57.067Z,60.60
2019-05-06T12:18:31.411Z,60.60
2019-05-06T12:21:11.419Z,60.90
2019-05-06T12:23:37.693Z,61.10
2019-05-06T12:26:09.140Z,60.70
2019-05-06T12:28:43.454Z,60.70
2019-05-06T12:31:14.374Z,60.70
2019-05-06T12:33:48.289Z,61.40
2019-05-06T12:36:23.783Z,62.10
2019-05-06T12:39:15.681Z,62.10
2019-05-06T12:42:07.764Z,62.40
2019-05-06T12:44:42.214Z,63.10
2019-05-06T12:47:16.657Z,63.60
2019-05-06T12:49:48.077Z,64.00
2019-05-06T12:52:22.922Z,64.00
2019-05-06T12:55:14.772Z,64.40
2019-05-06T12:57:29.881Z,64.00
2019-05-06T13:00:03.433Z,64.30
2019-05-06T13:02:38.894Z,62.70
2019-05-06T13:05:13.562Z,62.50
2019-05-06T13:08:05.932Z,62.20
2019-05-06T13:10:42.098Z,61.20
2019-05-06T13:13:16.053Z,61.80
2019-05-06T13:15:52.590Z,61.90
2019-05-06T13:18:24.000Z,61.80
2019-05-06T13:20:56.527Z,62.00
2019-05-06T13:23:29.540Z,62.70
2019-05-06T13:26:05.061Z,63.10
2019-05-06T13:28:39.104Z,64.10
2019-05-06T13:31:19.851Z,64.50
2019-05-06T13:33:56.233Z,65.00
2019-05-06T13:36:33.121Z,65.40
2019-05-06T13:39:14.016Z,65.30
2019-05-06T13:41:36.300Z,66.20
2019-05-06T13:44:13.134Z,66.30
2019-05-06T13:46:46.045Z,66.70
2019-05-06T13:49:28.312Z,66.60
2019-05-06T13:52:04.494Z,66.60
2019-05-06T13:54:37.571Z,66.50
2019-05-06T13:57:12.229Z,66.50
2019-05-06T13:59:45.535Z,67.20
2019-05-06T14:02:43.720Z,66.90
2019-05-06T14:05:15.452Z,67.70
2019-05-06T14:07:48.253Z,67.40
2019-05-06T14:10:22.718Z,67.40
2019-05-06T14:12:57.095Z,66.50
2019-05-06T14:15:32.536Z,65.90
2019-05-06T14:18:04.985Z,65.60
2019-05-06T14:20:37.967Z,65.30
2019-05-06T14:23:13.869Z,65.90
2019-05-06T14:26:04.710Z,65.80
2019-05-06T14:28:57.289Z,65.50
2019-05-06T14:31:32.691Z,65.60
2019-05-06T14:34:09.369Z,66.10
2019-05-06T14:36:43.267Z,65.80
2019-05-06T14:39:25.056Z,66.90
2019-05-06T14:41:59.272Z,66.30
2019-05-06T14:44:32.645Z,66.40
2019-05-06T14:47:07.273Z,66.10
2019-05-06T14:49:42.965Z,65.80
2019-05-06T14:52:14.592Z,65.50
2019-05-06T14:54:53.516Z,65.10
2019-05-06T14:57:27.105Z,65.20
2019-05-06T15:00:00.407Z,64.80
2019-05-06T15:02:33.784Z,65.50
2019-05-06T15:05:08.296Z,64.90
2019-05-06T15:07:42.373Z,64.70
2019-05-06T15:10:22.271Z,64.70
2019-05-06T15:12:49.686Z,64.60
2019-05-06T15:15:22.872Z,65.20
2019-05-06T15:17:56.984Z,64.50
2019-05-06T15:20:29.633Z,64.70
2019-05-06T15:23:06.971Z,64.80
2019-05-06T15:25:38.377Z,65.20
2019-05-06T15:28:12.965Z,65.40
2019-05-06T15:30:48.692Z,64.80
2019-05-06T15:33:25.528Z,64.80
2019-05-06T15:36:02.222Z,64.80
2019-05-06T15:38:34.781Z,64.50
2019-05-06T15:41:12.783Z,64.50
2019-05-06T15:43:44.640Z,65.10
2019-05-06T15:46:17.669Z,64.80
2019-05-06T15:48:52.953Z,64.30
2019-05-06T15:51:27.222Z,64.40
2019-05-06T15:53:59.830Z,64.40
2019-05-06T15:56:33.249Z,64.50
2019-05-06T15:59:13.051Z,64.30
2019-05-06T16:01:47.726Z,64.20
2019-05-06T16:04:22.734Z,64.20
2019-05-06T16:06:58.066Z,64.40
2019-05-06T16:09:32.829Z,64.20
2019-05-06T16:12:05.150Z,64.00
2019-05-06T16:14:37.565Z,64.00
2019-05-06T16:17:12.378Z,64.20
2019-05-06T16:19:44.079Z,66.60
2019-05-06T16:22:22.556Z,67.30
2019-05-06T16:24:56.992Z,67.80
2019-05-06T16:27:29.551Z,67.50
2019-05-06T16:30:03.476Z,66.70
2019-05-06T16:32:36.015Z,66.20
2019-05-06T16:35:09.539Z,66.60
2019-05-06T16:37:42.168Z,66.80
2019-05-06T16:40:15.096Z,66.00
2019-05-06T16:42:50.376Z,68.30
2019-05-06T16:45:23.400Z,68.50
2019-05-06T16:47:56.094Z,68.20
2019-05-06T16:50:32.523Z,68.90
2019-05-06T16:53:02.888Z,68.60
2019-05-06T16:55:36.971Z,68.30
2019-05-06T16:58:13.439Z,68.80
2019-05-06T17:00:52.421Z,69.00
2019-05-06T17:03:25.914Z,69.20
2019-05-06T17:06:19.712Z,69.20
2019-05-06T17:08:52.823Z,69.50
2019-05-06T17:11:30.370Z,69.70
2019-05-06T17:13:59.417Z,69.60
2019-05-06T17:16:34.000Z,69.80
2019-05-06T17:19:07.367Z,69.80
2019-05-06T17:21:38.952Z,69.40
2019-05-06T17:24:13.287Z,69.10
2019-05-06T17:26:53.966Z,69.00
2019-05-06T17:29:42.930Z,68.60
2019-05-06T17:32:17.398Z,68.40
2019-05-06T17:34:52.568Z,68.30
2019-05-06T17:37:42.082Z,68.20
2019-05-06T17:40:16.325Z,68.00
2019-05-06T17:42:53.103Z,67.70
2019-05-06T17:45:57.349Z,67.60
2019-05-06T17:48:19.221Z,67.40
2019-05-06T17:51:13.080Z,67.50
2019-05-06T17:53:49.095Z,67.40
2019-05-06T17:56:22.242Z,67.40
2019-05-06T17:58:57.557Z,67.60
2019-05-06T18:01:32.402Z,67.30
2019-05-06T18:04:04.023Z,67.30
2019-05-06T18:06:38.177Z,67.00
2019-05-06T18:09:12.597Z,66.80
2019-05-06T18:11:58.610Z,67.10
2019-05-06T18:14:23.016Z,67.00
2019-05-06T18:16:54.713Z,67.10
2019-05-06T18:19:27.070Z,67.60
2019-05-06T18:21:58.654Z,67.60
2019-05-06T18:24:30.394Z,67.70
2019-05-06T18:27:02.644Z,68.90
2019-05-06T18:29:37.254Z,68.00
2019-05-06T18:32:12.651Z,68.70
2019-05-06T18:34:46.024Z,69.10
2019-05-06T18:37:23.846Z,69.20
2019-05-06T18:39:55.496Z,69.40
2019-05-06T18:42:32.798Z,69.60
2019-05-06T18:45:06.551Z,70.70
2019-05-06T18:47:42.247Z,70.40
2019-05-06T18:50:12.567Z,71.20
2019-05-06T18:52:45.816Z,71.40
2019-05-06T18:55:22.192Z,71.60
2019-05-06T18:57:53.181Z,71.60
2019-05-06T19:00:26.276Z,71.20
2019-05-06T19:02:59.739Z,72.30
2019-05-06T19:05:34.173Z,72.00
2019-05-06T19:08:09.520Z,71.60
2019-05-06T19:10:42.445Z,71.30
2019-05-06T19:13:16.904Z,72.50
2019-05-06T19:15:49.480Z,72.50
2019-05-06T19:18:22.951Z,72.70
2019-05-06T19:20:57.641Z,72.90
2019-05-06T19:23:32.084Z,73.00
2019-05-06T19:26:04.678Z,72.50
2019-05-06T19:28:37.227Z,72.30
2019-05-06T19:31:08.767Z,73.20
2019-05-06T19:33:43.116Z,73.20
2019-05-06T19:36:14.631Z,73.00
2019-05-06T19:38:46.334Z,73.20
2019-05-06T19:41:19.044Z,73.10
2019-05-06T19:43:52.246Z,72.60
2019-05-06T19:46:23.457Z,72.70
2019-05-06T19:48:56.080Z,72.80
2019-05-06T19:51:28.537Z,73.10
2019-05-06T19:54:02.262Z,73.00
2019-05-06T19:56:35.890Z,72.80
2019-05-06T19:59:08.780Z,72.60
2019-05-06T20:01:42.923Z,73.20
2019-05-06T20:04:15.245Z,73.90
2019-05-06T20:06:49.448Z,73.90
2019-05-06T20:09:22.899Z,74.10
2019-05-06T20:11:58.628Z,73.40
2019-05-06T20:14:31.120Z,73.60
2019-05-06T20:17:03.751Z,73.40
2019-05-06T20:19:36.467Z,72.80
2019-05-06T20:22:09.288Z,72.70
2019-05-06T20:24:42.586Z,73.90
2019-05-06T20:27:16.673Z,74.00
2019-05-06T20:29:48.294Z,74.20
2019-05-06T20:32:23.005Z,73.90
2019-05-06T20:34:54.500Z,74.20
2019-05-06T20:37:26.067Z,74.20
2019-05-06T20:39:57.590Z,74.10
2019-05-06T20:42:30.232Z,74.10
2019-05-06T20:45:02.927Z,73.60
2019-05-06T20:47:34.427Z,75.00
2019-05-06T20:50:08.116Z,75.00
2019-05-06T20:52:43.080Z,75.00
2019-05-06T20:55:16.074Z,75.20
2019-05-06T20:57:47.678Z,75.30
2019-05-06T21:00:22.165Z,75.40
2019-05-06T21:02:53.599Z,75.20
2019-05-06T21:05:27.799Z,75.30
2019-05-06T21:08:02.107Z,75.20
2019-05-06T21:10:34.112Z,75.60
2019-05-06T21:13:06.937Z,75.60
2019-05-06T21:15:39.358Z,75.90
2019-05-06T21:18:12.212Z,75.40
2019-05-06T21:20:44.532Z,76.30
2019-05-06T21:23:17.349Z,76.60
2019-05-06T21:25:52.227Z,76.80
2019-05-06T21:28:23.820Z,76.80
2019-05-06T21:30:56.500Z,77.00
2019-05-06T21:33:28.090Z,76.80
2019-05-06T21:35:59.733Z,77.20
2019-05-06T21:38:32.245Z,77.30
2019-05-06T21:41:09.214Z,77.30
2019-05-06T21:43:48.915Z,77.40
2019-05-06T21:46:15.870Z,77.40
2019-05-06T21:48:47.436Z,77.40
2019-05-06T21:51:22.254Z,77.70
2019-05-06T21:53:53.772Z,77.70
2019-05-06T21:56:26.501Z,77.50
2019-05-06T21:58:59.321Z,77.80
2019-05-06T22:01:32.978Z,78.00
2019-05-06T22:04:05.139Z,78.00
2019-05-06T22:06:37.713Z,78.30
2019-05-06T22:09:09.292Z,78.30
2019-05-06T22:11:42.323Z,78.50
2019-05-06T22:14:15.929Z,78.30
2019-05-06T22:16:47.549Z,78.70
2019-05-06T22:19:19.242Z,78.80
2019-05-06T22:21:58.377Z,79.00
2019-05-06T22:24:35.690Z,79.10
2019-05-06T22:27:07.373Z,79.10
2019-05-06T22:29:42.655Z,79.10
2019-05-06T22:32:15.008Z,79.10
2019-05-06T22:34:46.139Z,79.20
2019-05-06T22:37:18.677Z,79.30
2019-05-06T22:39:52.780Z,79.30
2019-05-06T22:42:25.239Z,79.40
2019-05-06T22:44:57.842Z,79.40
2019-05-06T22:47:32.542Z,79.50
2019-05-06T22:50:03.959Z,79.60
2019-05-06T22:52:36.406Z,79.60
2019-05-06T22:55:08.979Z,79.50
2019-05-06T22:57:42.235Z,79.20
2019-05-06T23:00:15.960Z,79.20
2019-05-06T23:02:48.916Z,79.40
2019-05-06T23:05:22.888Z,78.90
2019-05-06T23:07:56.134Z,79.30
2019-05-06T23:10:30.018Z,79.30
2019-05-06T23:13:04.167Z,79.30
2019-05-06T23:15:36.603Z,79.50
2019-05-06T23:18:09.722Z,79.50
2019-05-06T23:20:43.009Z,79.60
2019-05-06T23:23:16.396Z,80.00
2019-05-06T23:25:52.514Z,79.80
2019-05-06T23:28:26.560Z,79.80
2019-05-06T23:31:01.956Z,79.80
2019-05-06T23:33:34.123Z,79.90
2019-05-06T23:36:07.167Z,80.00
2019-05-06T23:39:18.069Z,79.90
2019-05-06T23:42:27.153Z,80.20
2019-05-06T23:45:38.505Z,80.20
2019-05-06T23:48:47.143Z,80.00
2019-05-06T23:51:58.337Z,80.40
2019-05-06T23:55:06.711Z,80.50
2019-05-06T23:58:17.918Z,80.70
